createdAt,value
2019-03-01T00:01:33.884Z,38.07
2019-03-01T00:04:24.032Z,38.00
2019-03-01T00:08:20.121Z,38.13
2019-03-01T00:12:17.883Z,38.09
2019-03-01T00:15:40.931Z,38.09
2019-03-01T00:19:53.933Z,38.20
2019-03-01T00:23:24.334Z,38.10
2019-03-01T00:27:16.496Z,38.11
2019-03-01T00:31:06.849Z,38.21
2019-03-01T00:34:54.985Z,38.08
2019-03-01T00:38:41.335Z,38.06
2019-03-01T00:41:50.327Z,37.98
2019-03-01T00:44:48.652Z,37.93
2019-03-01T00:47:21.039Z,37.99
2019-03-01T00:49:53.109Z,37.96
2019-03-01T00:52:25.848Z,37.99
2019-03-01T00:54:57.912Z,38.02
2019-03-01T00:57:30.332Z,38.02
2019-03-01T01:00:02.880Z,38.09
2019-03-01T01:02:35.074Z,38.10
2019-03-01T01:05:08.808Z,38.17
2019-03-01T01:07:40.801Z,38.12
2019-03-01T01:10:12.880Z,38.21
2019-03-01T01:12:45.098Z,38.23
2019-03-01T01:15:17.296Z,38.29
2019-03-01T01:17:49.964Z,38.47
2019-03-01T01:20:22.388Z,38.26
2019-03-01T01:22:54.841Z,38.32
2019-03-01T01:25:26.896Z,38.32
2019-03-01T01:27:59.347Z,38.38
2019-03-01T01:30:32.600Z,38.34
2019-03-01T01:33:05.041Z,38.57
2019-03-01T01:35:37.392Z,38.57
2019-03-01T01:38:09.871Z,38.49
2019-03-01T01:40:41.875Z,38.46
2019-03-01T01:43:14.334Z,38.46
2019-03-01T01:45:46.955Z,38.52
2019-03-01T01:48:19.118Z,38.44
2019-03-01T01:50:51.881Z,38.36
2019-03-01T01:53:24.109Z,38.39
2019-03-01T01:55:56.903Z,38.42
2019-03-01T01:58:28.914Z,38.40
2019-03-01T02:01:02.008Z,38.37
2019-03-01T02:03:35.128Z,38.47
2019-03-01T02:06:07.485Z,38.36
2019-03-01T02:08:39.879Z,38.37
2019-03-01T02:11:11.976Z,38.30
2019-03-01T02:13:44.945Z,38.33
2019-03-01T02:16:18.347Z,38.40
2019-03-01T02:18:57.503Z,38.42
2019-03-01T02:21:25.356Z,38.37
2019-03-01T02:23:57.854Z,38.56
2019-03-01T02:26:30.130Z,38.48
2019-03-01T02:29:02.581Z,38.40
2019-03-01T02:31:34.878Z,38.51
2019-03-01T02:34:07.289Z,38.51
2019-03-01T02:36:39.941Z,38.28
2019-03-01T02:39:12.341Z,38.20
2019-03-01T02:41:44.942Z,38.40
2019-03-01T02:44:17.049Z,38.31
2019-03-01T02:46:49.374Z,38.36
2019-03-01T02:49:21.896Z,38.37
2019-03-01T02:51:54.851Z,38.35
2019-03-01T02:54:27.412Z,38.45
2019-03-01T02:56:59.936Z,38.30
2019-03-01T02:59:32.017Z,38.31
2019-03-01T03:02:04.117Z,38.38
2019-03-01T03:04:36.902Z,38.16
2019-03-01T03:07:30.546Z,38.26
2019-03-01T03:10:02.919Z,38.20
2019-03-01T03:12:35.316Z,38.20
2019-03-01T03:15:08.473Z,38.21
2019-03-01T03:17:40.859Z,38.09
2019-03-01T03:20:12.934Z,38.10
2019-03-01T03:22:45.083Z,38.15
2019-03-01T03:25:18.342Z,38.08
2019-03-01T03:27:51.337Z,38.18
2019-03-01T03:30:24.082Z,38.18
2019-03-01T03:32:56.886Z,38.08
2019-03-01T03:35:28.906Z,38.14
2019-03-01T03:38:01.376Z,38.01
2019-03-01T03:40:34.331Z,38.12
2019-03-01T03:43:07.183Z,38.07
2019-03-01T03:45:39.882Z,38.20
2019-03-01T03:48:12.022Z,38.20
2019-03-01T03:50:43.920Z,38.25
2019-03-01T03:53:15.934Z,38.13
2019-03-01T03:55:48.349Z,38.03
2019-03-01T03:58:20.876Z,37.93
2019-03-01T04:00:53.342Z,37.97
2019-03-01T04:03:25.984Z,37.86
2019-03-01T04:05:58.352Z,38.03
2019-03-01T04:08:30.903Z,37.87
2019-03-01T04:11:03.081Z,37.75
2019-03-01T04:13:35.879Z,37.86
2019-03-01T04:16:08.632Z,37.90
2019-03-01T04:18:40.881Z,38.05
2019-03-01T04:21:13.098Z,38.05
2019-03-01T04:23:45.493Z,38.08
2019-03-01T04:26:17.898Z,37.90
2019-03-01T04:28:50.331Z,37.83
2019-03-01T04:31:22.847Z,37.98
2019-03-01T04:33:55.838Z,38.05
2019-03-01T04:36:27.788Z,38.16
2019-03-01T04:38:59.850Z,38.13
2019-03-01T04:41:31.857Z,38.12
2019-03-01T04:44:05.338Z,38.11
2019-03-01T04:46:38.332Z,38.13
2019-03-01T04:49:11.101Z,38.11
2019-03-01T04:51:43.868Z,38.10
2019-03-01T04:54:17.006Z,38.06
2019-03-01T04:56:49.379Z,38.04
2019-03-01T04:59:21.400Z,38.04
2019-03-01T05:01:53.856Z,38.07
2019-03-01T05:04:26.099Z,38.10
2019-03-01T05:06:58.692Z,38.13
2019-03-01T05:09:30.909Z,38.08
2019-03-01T05:12:03.395Z,38.08
2019-03-01T05:14:35.951Z,38.25
2019-03-01T05:17:08.356Z,38.28
2019-03-01T05:19:40.865Z,38.22
2019-03-01T05:22:13.493Z,38.21
2019-03-01T05:24:45.892Z,38.27
2019-03-01T05:27:17.888Z,38.29
2019-03-01T05:29:50.796Z,38.21
2019-03-01T05:32:22.869Z,38.26
2019-03-01T05:34:55.336Z,38.22
2019-03-01T05:37:28.842Z,38.29
2019-03-01T05:40:01.314Z,38.25
2019-03-01T05:42:33.884Z,38.34
2019-03-01T05:45:07.468Z,38.30
2019-03-01T05:47:39.876Z,38.35
2019-03-01T05:50:13.891Z,38.39
2019-03-01T05:52:46.343Z,38.32
2019-03-01T05:55:19.347Z,38.31
2019-03-01T05:58:50.320Z,38.39
2019-03-01T06:02:24.395Z,38.39
2019-03-01T06:05:13.554Z,38.38
2019-03-01T06:08:43.829Z,38.42
2019-03-01T06:12:50.848Z,38.42
2019-03-01T06:16:14.472Z,38.55
2019-03-01T06:19:53.307Z,38.54
2019-03-01T06:23:46.324Z,38.54
2019-03-01T06:27:08.518Z,38.52
2019-03-01T06:30:51.608Z,38.52
2019-03-01T06:35:16.878Z,38.50
2019-03-01T06:39:15.173Z,38.62
2019-03-01T06:43:07.291Z,38.74
2019-03-01T06:46:42.105Z,38.72
2019-03-01T06:49:29.347Z,38.71
2019-03-01T06:52:01.908Z,38.81
2019-03-01T06:54:34.128Z,38.84
2019-03-01T06:57:06.893Z,38.77
2019-03-01T06:59:39.024Z,38.76
2019-03-01T07:02:12.856Z,38.83
2019-03-01T07:04:45.038Z,38.88
2019-03-01T07:07:17.330Z,38.93
2019-03-01T07:09:49.830Z,38.81
2019-03-01T07:12:22.001Z,38.79
2019-03-01T07:14:54.338Z,38.85
2019-03-01T07:17:26.929Z,38.85
2019-03-01T07:19:59.844Z,38.68
2019-03-01T07:22:32.005Z,38.75
2019-03-01T07:25:04.324Z,38.81
2019-03-01T07:27:36.907Z,38.80
2019-03-01T07:30:09.387Z,38.83
2019-03-01T07:32:41.897Z,38.84
2019-03-01T07:35:14.035Z,38.84
2019-03-01T07:37:46.343Z,38.82
2019-03-01T07:40:18.895Z,38.68
2019-03-01T07:42:51.004Z,38.74
2019-03-01T07:45:23.319Z,38.71
2019-03-01T07:47:55.897Z,38.77
2019-03-01T07:50:27.883Z,38.71
2019-03-01T07:53:00.218Z,38.80
2019-03-01T07:55:32.783Z,38.87
2019-03-01T07:58:04.904Z,38.94
2019-03-01T08:00:37.309Z,38.91
2019-03-01T08:03:11.796Z,38.93
2019-03-01T08:05:45.892Z,38.84
2019-03-01T08:08:18.365Z,38.92
2019-03-01T08:10:53.587Z,39.02
2019-03-01T08:13:26.784Z,38.97
2019-03-01T08:15:59.419Z,38.92
2019-03-01T08:18:32.338Z,38.89
2019-03-01T08:21:06.436Z,38.96
2019-03-01T08:23:38.919Z,38.89
2019-03-01T08:26:10.845Z,38.71
2019-03-01T08:28:43.333Z,38.76
2019-03-01T08:31:17.534Z,38.73
2019-03-01T08:33:49.866Z,38.81
2019-03-01T08:36:22.396Z,38.81
2019-03-01T08:38:54.871Z,38.74
2019-03-01T08:41:26.859Z,38.58
2019-03-01T08:43:58.900Z,38.50
2019-03-01T08:46:30.864Z,38.37
2019-03-01T08:49:03.094Z,38.37
2019-03-01T08:51:35.315Z,38.23
2019-03-01T08:54:07.879Z,38.27
2019-03-01T08:56:39.977Z,38.24
2019-03-01T08:59:14.108Z,38.19
2019-03-01T09:01:46.868Z,38.21
2019-03-01T09:04:21.429Z,38.21
2019-03-01T09:06:52.870Z,38.12
2019-03-01T09:09:24.998Z,38.12
2019-03-01T09:11:57.781Z,38.03
2019-03-01T09:14:29.893Z,38.05
2019-03-01T09:17:01.832Z,37.93
2019-03-01T09:19:33.885Z,37.80
2019-03-01T09:22:06.381Z,37.73
2019-03-01T09:24:38.927Z,37.67
2019-03-01T09:27:11.275Z,37.69
2019-03-01T09:29:43.884Z,37.67
2019-03-01T09:32:15.966Z,37.75
2019-03-01T09:34:50.686Z,37.70
2019-03-01T09:37:22.820Z,37.69
2019-03-01T09:40:05.035Z,37.69
2019-03-01T09:42:29.872Z,37.65
2019-03-01T09:45:01.998Z,37.65
2019-03-01T09:47:36.930Z,37.66
2019-03-01T09:50:09.903Z,37.69
2019-03-01T09:52:42.320Z,37.66
2019-03-01T09:55:14.869Z,37.72
2019-03-01T09:57:47.091Z,37.74
2019-03-01T10:00:22.325Z,37.80
2019-03-01T10:02:55.057Z,37.76
2019-03-01T10:05:27.893Z,37.74
2019-03-01T10:08:00.349Z,37.78
2019-03-01T10:10:33.102Z,37.70
2019-03-01T10:13:05.966Z,37.69
2019-03-01T10:15:38.070Z,37.60
2019-03-01T10:18:10.432Z,37.67
2019-03-01T10:20:42.905Z,37.60
2019-03-01T10:23:15.330Z,37.50
2019-03-01T10:25:48.062Z,37.49
2019-03-01T10:28:20.389Z,37.65
2019-03-01T10:30:53.338Z,37.83
2019-03-01T10:33:25.823Z,37.79
2019-03-01T10:35:58.050Z,37.72
2019-03-01T10:38:30.327Z,37.69
2019-03-01T10:41:02.922Z,37.73
2019-03-01T10:43:41.626Z,37.69
2019-03-01T10:46:24.331Z,37.60
2019-03-01T10:48:56.833Z,37.60
2019-03-01T10:51:29.012Z,37.57
2019-03-01T10:54:01.288Z,37.41
2019-03-01T10:56:33.652Z,37.41
2019-03-01T10:59:06.007Z,37.44
2019-03-01T11:01:38.321Z,37.44
2019-03-01T11:04:11.288Z,37.38
2019-03-01T11:06:44.323Z,37.34
2019-03-01T11:09:16.900Z,37.22
2019-03-01T11:11:53.023Z,37.15
2019-03-01T11:14:25.285Z,37.28
2019-03-01T11:16:57.872Z,37.28
2019-03-01T11:19:29.851Z,37.28
2019-03-01T11:22:01.842Z,37.36
2019-03-01T11:24:34.871Z,37.41
2019-03-01T11:27:12.791Z,37.50
2019-03-01T11:29:40.866Z,37.44
2019-03-01T11:32:13.331Z,37.44
2019-03-01T11:34:45.898Z,37.29
2019-03-01T11:37:18.080Z,37.26
2019-03-01T11:39:51.075Z,37.43
2019-03-01T11:42:23.365Z,37.40
2019-03-01T11:44:55.918Z,37.50
2019-03-01T11:47:27.875Z,37.61
2019-03-01T11:50:00.167Z,37.81
2019-03-01T11:52:32.877Z,37.77
2019-03-01T11:55:06.040Z,37.86
2019-03-01T11:57:38.317Z,37.88
2019-03-01T12:00:14.325Z,37.93
2019-03-01T12:02:46.856Z,37.89
2019-03-01T12:05:19.317Z,37.96
2019-03-01T12:07:51.909Z,38.07
2019-03-01T12:10:26.337Z,37.97
2019-03-01T12:12:59.027Z,38.08
2019-03-01T12:15:31.519Z,38.28
2019-03-01T12:18:04.101Z,38.13
2019-03-01T12:20:36.400Z,38.21
2019-03-01T12:23:09.326Z,38.17
2019-03-01T12:25:41.878Z,38.11
2019-03-01T12:28:13.878Z,38.20
2019-03-01T12:30:46.112Z,38.38
2019-03-01T12:33:18.326Z,38.33
2019-03-01T12:35:50.869Z,38.34
2019-03-01T12:38:23.074Z,38.29
2019-03-01T12:40:55.544Z,38.14
2019-03-01T12:43:28.347Z,38.39
2019-03-01T12:46:00.906Z,38.22
2019-03-01T12:48:32.844Z,38.15
2019-03-01T12:51:05.589Z,38.40
2019-03-01T12:53:37.289Z,38.35
2019-03-01T12:56:09.887Z,38.37
2019-03-01T12:58:42.329Z,38.53
2019-03-01T13:01:19.009Z,38.43
2019-03-01T13:03:51.333Z,38.31
2019-03-01T13:06:24.394Z,38.36
2019-03-01T13:08:56.872Z,38.34
2019-03-01T13:11:29.031Z,38.50
2019-03-01T13:14:01.433Z,38.37
2019-03-01T13:16:34.039Z,38.49
2019-03-01T13:19:06.334Z,38.32
2019-03-01T13:21:38.866Z,38.27
2019-03-01T13:24:12.676Z,38.49
2019-03-01T13:26:44.900Z,38.37
2019-03-01T13:29:19.063Z,38.36
2019-03-01T13:31:52.321Z,38.58
2019-03-01T13:34:26.722Z,38.58
2019-03-01T13:36:58.909Z,38.54
2019-03-01T13:39:31.109Z,38.54
2019-03-01T13:42:03.423Z,38.60
2019-03-01T13:44:36.085Z,38.60
2019-03-01T13:47:09.796Z,38.54
2019-03-01T13:49:42.324Z,38.63
2019-03-01T13:52:14.976Z,38.63
2019-03-01T13:54:47.290Z,38.78
2019-03-01T13:57:19.873Z,38.87
2019-03-01T13:59:52.322Z,38.71
2019-03-01T14:02:24.969Z,38.78
2019-03-01T14:04:57.063Z,39.07
2019-03-01T14:07:29.331Z,39.17
2019-03-01T14:10:04.882Z,39.19
2019-03-01T14:12:37.265Z,39.21
2019-03-01T14:15:12.108Z,39.36
2019-03-01T14:17:44.804Z,39.42
2019-03-01T14:20:21.035Z,39.47
2019-03-01T14:22:53.874Z,39.41
2019-03-01T14:25:26.812Z,39.48
2019-03-01T14:28:01.982Z,39.53
2019-03-01T14:30:33.463Z,39.44
2019-03-01T14:33:05.887Z,39.20
2019-03-01T14:35:38.039Z,39.20
2019-03-01T14:38:10.489Z,39.45
2019-03-01T14:40:43.015Z,39.41
2019-03-01T14:43:15.628Z,39.51
2019-03-01T14:45:48.031Z,39.43
2019-03-01T14:48:20.410Z,39.43
2019-03-01T14:50:52.898Z,39.47
2019-03-01T14:53:25.317Z,39.48
2019-03-01T14:56:08.483Z,39.56
2019-03-01T14:58:59.884Z,39.48
2019-03-01T15:02:08.886Z,39.58
2019-03-01T15:04:41.046Z,40.00
2019-03-01T15:07:13.509Z,38.52
2019-03-01T15:09:45.897Z,37.63
2019-03-01T15:12:21.040Z,36.91
2019-03-01T15:14:52.495Z,36.48
2019-03-01T15:17:24.891Z,36.09
2019-03-01T15:19:57.105Z,35.88
2019-03-01T15:22:29.993Z,35.79
2019-03-01T15:25:02.877Z,35.56
2019-03-01T15:27:39.722Z,35.64
2019-03-01T15:30:13.958Z,35.53
2019-03-01T15:32:46.097Z,35.58
2019-03-01T15:35:18.528Z,35.67
2019-03-01T15:37:50.865Z,35.83
2019-03-01T15:40:22.862Z,35.87
2019-03-01T15:42:55.583Z,35.87
2019-03-01T15:45:28.075Z,36.07
2019-03-01T15:48:02.077Z,36.07
2019-03-01T15:50:34.848Z,36.14
2019-03-01T15:53:07.327Z,36.19
2019-03-01T15:55:39.879Z,36.08
2019-03-01T15:58:11.910Z,36.28
2019-03-01T16:00:44.320Z,36.27
2019-03-01T16:03:16.996Z,36.35
2019-03-01T16:05:49.275Z,36.53
2019-03-01T16:08:21.918Z,36.54
2019-03-01T16:10:53.974Z,36.84
2019-03-01T16:13:26.323Z,37.03
2019-03-01T16:15:59.756Z,37.19
2019-03-01T16:18:30.738Z,37.30
2019-03-01T16:21:08.893Z,37.41
2019-03-01T16:23:41.334Z,37.69
2019-03-01T16:26:13.874Z,37.81
2019-03-01T16:28:46.867Z,38.08
2019-03-01T16:31:18.874Z,38.72
2019-03-01T16:33:55.758Z,37.70
2019-03-01T16:36:31.213Z,37.44
2019-03-01T16:39:04.872Z,37.82
2019-03-01T16:41:39.688Z,38.14
2019-03-01T16:44:11.628Z,38.23
2019-03-01T16:46:43.870Z,38.29
2019-03-01T16:49:17.901Z,38.29
2019-03-01T16:51:50.684Z,38.45
2019-03-01T16:54:25.358Z,38.56
2019-03-01T16:56:58.315Z,38.45
2019-03-01T16:59:31.031Z,38.60
2019-03-01T17:02:06.614Z,38.72
2019-03-01T17:04:38.711Z,38.49
2019-03-01T17:07:10.765Z,38.78
2019-03-01T17:09:43.392Z,38.65
2019-03-01T17:12:16.684Z,38.72
2019-03-01T17:14:50.031Z,38.59
2019-03-01T17:17:23.414Z,38.57
2019-03-01T17:19:58.729Z,38.41
2019-03-01T17:22:30.448Z,38.80
2019-03-01T17:25:02.882Z,38.80
2019-03-01T17:27:36.681Z,38.67
2019-03-01T17:30:14.220Z,38.80
2019-03-01T17:32:46.086Z,38.98
2019-03-01T17:35:19.032Z,39.10
2019-03-01T17:37:51.917Z,39.03
2019-03-01T17:40:24.349Z,38.27
2019-03-01T17:42:58.088Z,38.37
2019-03-01T17:45:31.379Z,38.72
2019-03-01T17:48:04.015Z,38.61
2019-03-01T17:50:36.394Z,39.01
2019-03-01T17:53:28.459Z,38.58
2019-03-01T17:56:01.393Z,38.58
2019-03-01T17:58:34.009Z,39.29
2019-03-01T18:01:07.328Z,39.02
2019-03-01T18:03:39.964Z,38.88
2019-03-01T18:06:16.754Z,38.98
2019-03-01T18:08:49.458Z,39.10
2019-03-01T18:11:23.809Z,38.94
2019-03-01T18:13:56.927Z,38.44
2019-03-01T18:16:30.825Z,39.70
2019-03-01T18:19:04.027Z,39.43
2019-03-01T18:21:36.395Z,39.01
2019-03-01T18:24:10.999Z,39.04
2019-03-01T18:26:42.887Z,39.18
2019-03-01T18:29:15.128Z,39.18
2019-03-01T18:31:47.389Z,38.65
2019-03-01T18:34:20.481Z,38.86
2019-03-01T18:36:52.903Z,38.81
2019-03-01T18:39:25.479Z,39.20
2019-03-01T18:41:59.286Z,39.09
2019-03-01T18:44:32.892Z,36.96
2019-03-01T18:47:05.012Z,36.96
2019-03-01T18:49:37.634Z,37.95
2019-03-01T18:52:14.483Z,37.61
2019-03-01T18:54:44.065Z,37.61
2019-03-01T18:57:17.124Z,38.09
2019-03-01T18:59:49.897Z,38.00
2019-03-01T19:02:24.342Z,38.17
2019-03-01T19:04:56.878Z,38.00
2019-03-01T19:07:29.005Z,38.46
2019-03-01T19:10:01.321Z,38.24
2019-03-01T19:12:33.803Z,38.77
2019-03-01T19:15:06.321Z,37.78
2019-03-01T19:17:40.723Z,38.88
2019-03-01T19:20:18.376Z,38.26
2019-03-01T19:22:50.956Z,38.28
2019-03-01T19:25:25.474Z,37.95
2019-03-01T19:27:57.316Z,38.55
2019-03-01T19:30:29.879Z,38.31
2019-03-01T19:33:02.245Z,39.25
2019-03-01T19:35:35.883Z,38.98
2019-03-01T19:38:08.325Z,39.10
2019-03-01T19:40:43.528Z,38.65
2019-03-01T19:43:14.878Z,39.02
2019-03-01T19:45:47.356Z,39.02
2019-03-01T19:48:20.009Z,39.29
2019-03-01T19:50:52.306Z,37.84
2019-03-01T19:53:25.501Z,38.34
2019-03-01T19:55:59.015Z,38.10
2019-03-01T19:58:31.316Z,38.95
2019-03-01T20:01:03.848Z,38.63
2019-03-01T20:03:37.823Z,38.79
2019-03-01T20:06:09.913Z,38.46
2019-03-01T20:08:42.276Z,39.23
2019-03-01T20:11:15.049Z,38.58
2019-03-01T20:13:47.326Z,38.07
2019-03-01T20:16:22.586Z,38.98
2019-03-01T20:18:53.803Z,38.78
2019-03-01T20:21:25.917Z,38.50
2019-03-01T20:24:01.745Z,38.72
2019-03-01T20:26:32.972Z,38.84
2019-03-01T20:29:05.050Z,38.84
2019-03-01T20:31:40.534Z,38.27
2019-03-01T20:34:11.310Z,39.04
2019-03-01T20:36:43.872Z,37.73
2019-03-01T20:39:16.518Z,38.54
2019-03-01T20:41:49.023Z,38.26
2019-03-01T20:44:21.850Z,38.26
2019-03-01T20:46:54.085Z,39.03
2019-03-01T20:49:26.878Z,38.30
2019-03-01T20:52:02.294Z,39.29
2019-03-01T20:54:33.865Z,38.93
2019-03-01T20:57:06.341Z,38.94
2019-03-01T20:59:39.137Z,39.37
2019-03-01T21:02:13.156Z,38.87
2019-03-01T21:04:53.342Z,39.51
2019-03-01T21:07:18.876Z,39.13
2019-03-01T21:09:51.982Z,39.16
2019-03-01T21:12:24.327Z,39.43
2019-03-01T21:14:58.684Z,39.46
2019-03-01T21:17:31.933Z,38.82
2019-03-01T21:20:05.333Z,38.82
2019-03-01T21:22:40.784Z,38.17
2019-03-01T21:25:19.548Z,38.24
2019-03-01T21:27:51.769Z,38.60
2019-03-01T21:30:29.088Z,38.56
2019-03-01T21:33:01.894Z,38.38
2019-03-01T21:35:34.396Z,38.71
2019-03-01T21:38:06.884Z,39.23
2019-03-01T21:40:39.521Z,38.51
2019-03-01T21:43:12.315Z,38.16
2019-03-01T21:45:44.880Z,38.98
2019-03-01T21:48:18.590Z,38.80
2019-03-01T21:50:51.317Z,39.15
2019-03-01T21:53:25.335Z,39.23
2019-03-01T21:56:00.677Z,39.00
2019-03-01T21:58:31.800Z,39.00
2019-03-01T22:01:05.886Z,39.36
2019-03-01T22:03:40.573Z,39.19
2019-03-01T22:06:13.079Z,39.50
2019-03-01T22:08:48.776Z,38.58
2019-03-01T22:11:21.028Z,39.39
2019-03-01T22:13:54.332Z,39.39
2019-03-01T22:16:26.624Z,39.34
2019-03-01T22:18:59.891Z,39.51
2019-03-01T22:21:31.950Z,39.81
2019-03-01T22:24:04.852Z,39.29
2019-03-01T22:26:37.338Z,39.94
2019-03-01T22:29:12.342Z,39.96
2019-03-01T22:31:46.048Z,39.98
2019-03-01T22:34:18.315Z,39.61
2019-03-01T22:36:52.874Z,39.35
2019-03-01T22:39:25.291Z,39.48
2019-03-01T22:41:58.034Z,39.48
2019-03-01T22:44:33.331Z,39.63
2019-03-01T22:47:07.008Z,39.90
2019-03-01T22:49:39.916Z,40.13
2019-03-01T22:52:12.045Z,39.71
2019-03-01T22:54:44.392Z,39.71
2019-03-01T22:57:19.170Z,40.11
2019-03-01T22:59:51.028Z,39.60
2019-03-01T23:02:26.332Z,39.42
2019-03-01T23:05:00.522Z,39.91
2019-03-01T23:07:32.869Z,39.43
2019-03-01T23:10:05.446Z,39.43
2019-03-01T23:12:40.585Z,39.68
2019-03-01T23:15:12.743Z,39.77
2019-03-01T23:17:45.332Z,39.49
2019-03-01T23:20:18.332Z,39.45
2019-03-01T23:22:50.870Z,39.15
2019-03-01T23:25:23.337Z,39.09
2019-03-01T23:27:55.898Z,39.03
2019-03-01T23:30:29.055Z,39.28
2019-03-01T23:33:01.902Z,39.36
2019-03-01T23:35:33.870Z,39.36
2019-03-01T23:38:06.012Z,38.84
2019-03-01T23:40:38.871Z,39.41
2019-03-01T23:43:11.103Z,39.01
2019-03-01T23:45:43.884Z,39.55
2019-03-01T23:48:15.927Z,39.67
2019-03-01T23:50:48.582Z,39.82
2019-03-01T23:53:21.127Z,40.00
2019-03-01T23:58:39.998Z,38.77
